Terminal Aerodrome Forecast
Issued by NWS

Home | Current Version | Previous Version | Text Only | Print | Product List | Glossary On
Versions: 1 2 3 4 5 6 7 8 9 10 11 12 13 14
203
FTUS45 KVEF 081729
TAFDAG
TAF
KDAG 081729Z 0818/0918 VRB05KT P6SM BKN250
     FM082200 07006KT P6SM BKN250
     FM090200 26007KT P6SM BKN250
     FM091400 VRB05KT P6SM BKN250=

USA.gov is the U.S. government's official web portal to all federal, state and local government web resources and services.